createdAt,value
2023-03-12T00:01:10.298Z,70.68
2023-03-12T00:03:36.687Z,70.83
2023-03-12T00:06:10.585Z,70.73
2023-03-12T00:08:37.564Z,70.62
2023-03-12T00:11:12.948Z,71.10
2023-03-12T00:13:39.952Z,71.16
2023-03-12T00:16:12.988Z,71.27
2023-03-12T00:18:39.488Z,71.21
2023-03-12T00:21:06.847Z,71.39
2023-03-12T00:23:33.572Z,71.27
2023-03-12T00:26:05.397Z,71.03
2023-03-12T00:28:32.598Z,71.14
2023-03-12T00:30:59.117Z,70.85
2023-03-12T00:33:27.084Z,70.80
2023-03-12T00:35:53.960Z,70.71
2023-03-12T00:38:20.906Z,70.61
2023-03-12T00:40:47.611Z,70.96
2023-03-12T00:43:14.675Z,71.21
2023-03-12T00:45:41.145Z,71.21
2023-03-12T00:48:07.568Z,71.07
2023-03-12T00:50:33.968Z,70.93
2023-03-12T00:53:00.767Z,71.33
2023-03-12T00:55:27.179Z,71.11
2023-03-12T00:57:53.667Z,71.38
2023-03-12T01:00:20.435Z,71.12
2023-03-12T01:02:47.161Z,71.68
2023-03-12T01:05:14.463Z,71.53
2023-03-12T01:07:41.064Z,72.16
2023-03-12T01:10:09.065Z,72.23
2023-03-12T01:12:35.557Z,72.02
2023-03-12T01:15:02.395Z,72.10
2023-03-12T01:17:28.763Z,71.84
2023-03-12T01:19:55.155Z,71.71
2023-03-12T01:22:21.585Z,72.31
2023-03-12T01:24:48.257Z,72.31
2023-03-12T01:27:14.703Z,72.17
2023-03-12T01:29:41.201Z,72.29
2023-03-12T01:32:07.724Z,72.45
2023-03-12T01:34:35.463Z,71.67
2023-03-12T01:37:02.366Z,72.35
2023-03-12T01:39:28.833Z,71.82
2023-03-12T01:41:55.454Z,72.39
2023-03-12T01:44:22.198Z,72.37
2023-03-12T01:46:48.656Z,72.65
2023-03-12T01:49:20.256Z,72.76
2023-03-12T01:51:49.406Z,73.12
2023-03-12T01:54:44.304Z,72.47
2023-03-12T01:57:18.843Z,73.45
2023-03-12T01:59:48.864Z,73.70
2023-03-12T02:02:16.590Z,73.64
2023-03-12T02:04:45.137Z,72.89
2023-03-12T02:07:14.097Z,73.10
2023-03-12T02:09:45.451Z,73.66
2023-03-12T02:12:12.641Z,73.50
2023-03-12T02:14:39.503Z,74.11
2023-03-12T02:17:06.131Z,73.61
2023-03-12T02:20:00.005Z,73.74
2023-03-12T02:22:26.696Z,73.23
2023-03-12T02:24:56.165Z,73.51
2023-03-12T02:27:23.564Z,73.40
2023-03-12T02:29:50.825Z,74.73
2023-03-12T02:32:23.119Z,74.32
2023-03-12T02:34:50.742Z,74.06
2023-03-12T02:37:18.533Z,74.28
2023-03-12T02:39:51.222Z,74.05
2023-03-12T02:42:17.939Z,74.60
2023-03-12T02:44:44.731Z,75.15
2023-03-12T02:47:11.465Z,74.71
2023-03-12T02:49:37.869Z,74.50
2023-03-12T02:52:04.885Z,74.31
2023-03-12T02:54:31.772Z,74.44
2023-03-12T02:56:58.888Z,74.75
2023-03-12T02:59:26.734Z,74.70
2023-03-12T03:01:56.339Z,75.00
2023-03-12T03:04:25.197Z,74.97
2023-03-12T03:06:52.338Z,75.77
2023-03-12T03:09:22.211Z,74.80
2023-03-12T03:11:50.203Z,75.06
2023-03-12T03:14:16.733Z,74.63
2023-03-12T03:16:43.142Z,74.91
2023-03-12T03:19:10.324Z,75.21
2023-03-12T03:21:37.123Z,75.15
2023-03-12T03:24:03.878Z,75.23
2023-03-12T03:26:30.301Z,75.05
2023-03-12T03:28:56.725Z,75.17
2023-03-12T03:31:23.613Z,75.09
2023-03-12T03:33:50.193Z,75.67
2023-03-12T03:36:17.401Z,76.18
2023-03-12T03:38:49.087Z,76.13
2023-03-12T03:41:17.905Z,76.00
2023-03-12T03:43:44.765Z,76.55
2023-03-12T03:46:13.137Z,76.98
2023-03-12T03:48:40.080Z,76.70
2023-03-12T03:51:10.207Z,76.72
2023-03-12T03:53:37.032Z,76.75
2023-03-12T03:56:11.576Z,77.59
2023-03-12T03:58:38.280Z,78.09
2023-03-12T04:01:06.114Z,77.36
2023-03-12T04:03:33.225Z,77.79
2023-03-12T04:06:01.881Z,77.28
2023-03-12T04:08:28.944Z,77.83
2023-03-12T04:10:56.028Z,78.08
2023-03-12T04:13:22.433Z,77.95
2023-03-12T04:15:51.482Z,78.30
2023-03-12T04:18:18.384Z,79.04
2023-03-12T04:20:46.119Z,79.18
2023-03-12T04:23:12.504Z,79.36
2023-03-12T04:25:39.520Z,79.49
2023-03-12T04:28:06.201Z,79.07
2023-03-12T04:30:32.712Z,79.30
2023-03-12T04:32:59.349Z,79.91
2023-03-12T04:35:25.902Z,79.08
2023-03-12T04:37:52.382Z,80.41
2023-03-12T04:40:19.947Z,80.06
2023-03-12T04:42:46.810Z,80.65
2023-03-12T04:45:13.661Z,80.35
2023-03-12T04:47:40.453Z,80.68
2023-03-12T04:50:08.227Z,80.26
2023-03-12T04:52:34.686Z,80.17
2023-03-12T04:55:02.567Z,80.70
2023-03-12T04:57:28.959Z,80.51
2023-03-12T04:59:55.363Z,80.41
2023-03-12T05:02:22.337Z,80.58
2023-03-12T05:04:48.800Z,81.36
2023-03-12T05:07:15.192Z,81.17
2023-03-12T05:09:41.617Z,81.71
2023-03-12T05:12:08.761Z,81.43
2023-03-12T05:14:35.200Z,81.84
2023-03-12T05:17:01.637Z,81.45
2023-03-12T05:19:28.045Z,80.85
2023-03-12T05:21:54.818Z,80.99
2023-03-12T05:24:22.467Z,81.80
2023-03-12T05:26:49.049Z,81.41
2023-03-12T05:29:15.485Z,81.89
2023-03-12T05:31:42.139Z,82.40
2023-03-12T05:34:13.991Z,82.43
2023-03-12T05:36:40.614Z,82.14
2023-03-12T05:39:07.067Z,82.28
2023-03-12T05:41:33.569Z,83.90
2023-03-12T05:44:00.106Z,83.41
2023-03-12T05:46:27.510Z,83.16
2023-03-12T05:48:54.162Z,84.12
2023-03-12T05:51:21.222Z,83.49
2023-03-12T05:53:48.012Z,84.95
2023-03-12T05:56:16.830Z,84.33
2023-03-12T05:58:44.611Z,85.29
2023-03-12T06:01:14.528Z,85.20
2023-03-12T06:03:42.839Z,85.02
2023-03-12T06:06:10.201Z,84.69
2023-03-12T06:08:36.698Z,84.88
2023-03-12T06:11:03.560Z,84.35
2023-03-12T06:13:30.791Z,85.02
2023-03-12T06:16:05.281Z,85.08
2023-03-12T06:18:32.881Z,85.02
2023-03-12T06:21:13.811Z,84.50
2023-03-12T06:23:41.031Z,85.17
2023-03-12T06:26:08.277Z,85.39
2023-03-12T06:28:35.568Z,85.83
2023-03-12T06:31:02.367Z,86.20
2023-03-12T06:33:29.712Z,85.58
2023-03-12T06:36:00.837Z,86.38
2023-03-12T06:38:27.588Z,86.86
2023-03-12T06:40:58.656Z,87.00
2023-03-12T06:43:26.729Z,86.61
2023-03-12T06:45:55.757Z,87.60
2023-03-12T06:48:23.295Z,87.15
2023-03-12T06:50:50.074Z,87.32
2023-03-12T06:53:16.488Z,87.56
2023-03-12T06:55:44.054Z,87.56
2023-03-12T06:58:10.697Z,86.84
2023-03-12T07:00:37.089Z,86.66
2023-03-12T07:03:03.596Z,86.82
2023-03-12T07:05:30.440Z,86.35
2023-03-12T07:07:57.215Z,86.33
2023-03-12T07:10:23.770Z,86.25
2023-03-12T07:12:50.611Z,86.42
2023-03-12T07:15:17.025Z,85.92
2023-03-12T07:17:43.414Z,86.37
2023-03-12T07:20:10.717Z,85.90
2023-03-12T07:22:37.111Z,85.83
2023-03-12T07:25:04.700Z,85.91
2023-03-12T07:27:31.114Z,85.02
2023-03-12T07:29:57.513Z,84.97
2023-03-12T07:32:23.963Z,84.18
2023-03-12T07:34:50.446Z,84.54
2023-03-12T07:37:16.834Z,84.27
2023-03-12T07:39:44.639Z,84.25
2023-03-12T07:42:12.837Z,84.39
2023-03-12T07:44:39.379Z,84.01
2023-03-12T07:47:22.230Z,83.08
2023-03-12T07:49:49.856Z,83.27
2023-03-12T07:52:18.001Z,83.56
2023-03-12T07:54:44.557Z,82.67
2023-03-12T07:57:11.283Z,82.67
2023-03-12T07:59:37.739Z,83.23
2023-03-12T08:02:04.224Z,83.13
2023-03-12T08:04:31.156Z,82.70
2023-03-12T08:06:57.660Z,83.15
2023-03-12T08:09:24.572Z,83.05
2023-03-12T08:11:51.184Z,82.44
2023-03-12T08:14:18.025Z,83.29
2023-03-12T08:16:44.862Z,82.35
2023-03-12T08:19:11.673Z,82.80
2023-03-12T08:21:38.078Z,83.43
2023-03-12T08:24:04.771Z,83.69
2023-03-12T08:26:31.252Z,82.91
2023-03-12T08:29:00.138Z,83.54
2023-03-12T08:31:28.867Z,83.80
2023-03-12T08:33:55.318Z,83.82
2023-03-12T08:36:22.555Z,84.05
2023-03-12T08:38:49.099Z,83.70
2023-03-12T08:41:15.537Z,82.87
2023-03-12T08:43:42.009Z,82.60
2023-03-12T08:46:11.102Z,83.21
2023-03-12T08:48:39.095Z,82.98
2023-03-12T08:51:07.467Z,82.90
2023-03-12T08:53:36.286Z,83.00
2023-03-12T08:56:04.470Z,81.52
2023-03-12T08:58:31.390Z,81.51
2023-03-12T09:00:58.148Z,81.45
2023-03-12T09:03:25.840Z,80.75
2023-03-12T09:06:03.390Z,80.27
2023-03-12T09:08:29.754Z,79.91
2023-03-12T09:10:56.180Z,79.51
2023-03-12T09:13:22.635Z,78.32
2023-03-12T09:15:49.087Z,76.49
2023-03-12T09:18:16.262Z,77.47
2023-03-12T09:20:43.560Z,77.37
2023-03-12T09:23:10.102Z,75.37
2023-03-12T09:25:37.300Z,76.59
2023-03-12T09:28:03.733Z,76.44
2023-03-12T09:30:32.035Z,76.29
2023-03-12T09:32:58.686Z,76.45
2023-03-12T09:35:25.183Z,76.29
2023-03-12T09:37:51.594Z,75.19
2023-03-12T09:40:22.725Z,74.78
2023-03-12T09:42:58.959Z,75.45
2023-03-12T09:45:31.931Z,74.78
2023-03-12T09:48:05.080Z,74.02
2023-03-12T09:50:43.937Z,74.34
2023-03-12T09:53:23.311Z,73.88
2023-03-12T09:55:52.517Z,73.90
2023-03-12T09:58:33.879Z,73.07
2023-03-12T10:01:12.862Z,72.39
2023-03-12T10:03:49.230Z,73.07
2023-03-12T10:06:22.105Z,73.68
2023-03-12T10:09:00.322Z,74.94
2023-03-12T10:11:37.506Z,75.43
2023-03-12T10:14:35.057Z,75.70
2023-03-12T10:17:38.148Z,75.66
2023-03-12T10:20:16.604Z,76.09
2023-03-12T10:22:49.920Z,76.92
2023-03-12T10:25:31.688Z,77.33
2023-03-12T10:28:02.545Z,77.87
2023-03-12T10:30:31.865Z,78.82
2023-03-12T10:33:06.724Z,79.90
2023-03-12T10:35:33.167Z,80.14
2023-03-12T10:38:05.631Z,80.17
2023-03-12T10:40:35.235Z,80.70
2023-03-12T10:43:03.602Z,80.30
2023-03-12T10:45:54.979Z,80.44
2023-03-12T10:48:24.658Z,80.51
2023-03-12T10:51:11.777Z,79.98
2023-03-12T10:53:44.711Z,80.04
2023-03-12T10:56:17.150Z,79.73
2023-03-12T10:58:49.682Z,79.79
2023-03-12T11:01:25.409Z,79.79
2023-03-12T11:03:53.968Z,79.86
2023-03-12T11:06:29.840Z,79.62
2023-03-12T11:09:17.689Z,79.88
2023-03-12T11:11:47.688Z,79.30
2023-03-12T11:14:19.249Z,79.75
2023-03-12T11:16:46.045Z,80.42
2023-03-12T11:19:14.859Z,80.95
2023-03-12T11:21:55.726Z,83.84
2023-03-12T11:24:22.170Z,83.88
2023-03-12T11:26:51.669Z,85.57
2023-03-12T11:29:25.920Z,85.72
2023-03-12T11:32:14.613Z,86.20
2023-03-12T11:34:42.121Z,87.74
2023-03-12T11:37:18.930Z,88.62
2023-03-12T11:40:11.575Z,90.32
2023-03-12T11:42:44.170Z,90.33
2023-03-12T11:45:32.459Z,90.18
2023-03-12T11:48:28.751Z,90.46
2023-03-12T11:51:08.414Z,89.16
2023-03-12T11:53:43.826Z,89.67
2023-03-12T11:56:57.936Z,89.92
2023-03-12T12:00:00.668Z,91.17
2023-03-12T12:02:30.187Z,92.12
2023-03-12T12:05:07.149Z,92.56
2023-03-12T12:07:42.771Z,92.67
2023-03-12T12:10:17.026Z,93.12
2023-03-12T12:13:25.047Z,92.91
2023-03-12T12:16:02.204Z,92.31
2023-03-12T12:18:50.357Z,90.98
2023-03-12T12:21:22.748Z,90.37
2023-03-12T12:24:18.537Z,90.68
2023-03-12T12:26:56.403Z,89.86
2023-03-12T12:29:22.736Z,88.96
2023-03-12T12:31:59.529Z,88.57
2023-03-12T12:34:45.219Z,89.62
2023-03-12T12:37:22.872Z,89.63
2023-03-12T12:40:12.630Z,90.20
2023-03-12T12:42:58.590Z,90.41
2023-03-12T12:45:30.745Z,89.91
2023-03-12T12:48:02.901Z,91.25
2023-03-12T12:50:34.921Z,91.15
2023-03-12T12:53:23.911Z,91.03
2023-03-12T12:56:22.835Z,91.51
2023-03-12T12:59:14.620Z,91.17
2023-03-12T13:01:41.804Z,90.49
2023-03-12T13:04:18.282Z,91.33
2023-03-12T13:07:13.005Z,91.87
2023-03-12T13:09:45.979Z,92.05
2023-03-12T13:12:14.014Z,92.68
2023-03-12T13:14:45.262Z,94.29
2023-03-12T13:17:35.189Z,97.33
2023-03-12T13:20:06.113Z,98.84
2023-03-12T13:22:49.740Z,99.09
2023-03-12T13:25:31.689Z,100.00
2023-03-12T13:28:21.964Z,100.00
2023-03-12T13:30:50.588Z,100.00
2023-03-12T13:33:21.610Z,100.00
2023-03-12T13:36:04.327Z,100.00
2023-03-12T13:38:51.798Z,100.00
2023-03-12T13:41:32.005Z,100.00
2023-03-12T13:43:58.636Z,100.00
2023-03-12T13:46:35.114Z,100.00
2023-03-12T13:49:06.248Z,100.00
2023-03-12T13:51:32.881Z,100.00
2023-03-12T13:54:01.659Z,100.00
2023-03-12T13:56:31.074Z,100.00
2023-03-12T13:59:02.451Z,100.00
2023-03-12T14:01:42.847Z,100.00
2023-03-12T14:04:18.604Z,100.00
2023-03-12T14:07:03.727Z,100.00
2023-03-12T14:09:59.569Z,100.00
2023-03-12T14:12:39.838Z,100.00
2023-03-12T14:15:09.534Z,100.00
2023-03-12T14:17:37.868Z,100.00
2023-03-12T14:20:07.319Z,100.00
2023-03-12T14:22:37.487Z,100.00
2023-03-12T14:25:14.571Z,100.00
2023-03-12T14:27:45.114Z,100.00
2023-03-12T14:30:39.572Z,100.00
2023-03-12T14:33:07.440Z,100.00
2023-03-12T14:35:41.057Z,100.00
2023-03-12T14:38:16.090Z,100.00
2023-03-12T14:41:03.776Z,100.00
2023-03-12T14:43:32.946Z,100.00
2023-03-12T14:46:02.066Z,100.00
2023-03-12T14:48:31.792Z,100.00
2023-03-12T14:50:59.576Z,100.00
2023-03-12T14:53:35.089Z,100.00
2023-03-12T14:56:14.940Z,100.00
2023-03-12T14:58:49.553Z,100.00
2023-03-12T15:01:21.792Z,100.00
2023-03-12T15:03:52.952Z,100.00
2023-03-12T15:06:29.793Z,100.00
2023-03-12T15:08:57.383Z,100.00
2023-03-12T15:11:26.696Z,100.00
2023-03-12T15:13:56.531Z,100.00
2023-03-12T15:16:24.043Z,100.00
2023-03-12T15:18:51.286Z,100.00
2023-03-12T15:21:18.418Z,100.00
2023-03-12T15:23:47.326Z,100.00
2023-03-12T15:26:16.893Z,100.00
2023-03-12T15:28:43.912Z,100.00
2023-03-12T15:31:16.853Z,100.00
2023-03-12T15:33:44.330Z,100.00
2023-03-12T15:36:19.899Z,100.00
2023-03-12T15:38:51.914Z,100.00
2023-03-12T15:41:26.304Z,100.00
2023-03-12T15:43:55.863Z,100.00
2023-03-12T15:46:24.564Z,100.00
2023-03-12T15:48:54.984Z,100.00
2023-03-12T15:51:34.502Z,100.00
2023-03-12T15:54:25.142Z,100.00
2023-03-12T15:56:51.797Z,100.00
2023-03-12T15:59:25.815Z,100.00
2023-03-12T16:01:54.842Z,100.00
2023-03-12T16:04:22.677Z,100.00
2023-03-12T16:06:50.359Z,100.00
2023-03-12T16:09:26.245Z,100.00
2023-03-12T16:11:55.199Z,100.00
2023-03-12T16:14:30.257Z,100.00
2023-03-12T16:16:56.959Z,100.00
2023-03-12T16:19:24.121Z,100.00
2023-03-12T16:21:50.799Z,100.00
2023-03-12T16:24:17.598Z,100.00
2023-03-12T16:27:05.290Z,100.00
2023-03-12T16:29:34.539Z,100.00
2023-03-12T16:32:01.958Z,100.00
2023-03-12T16:34:28.777Z,100.00
2023-03-12T16:36:55.222Z,100.00
2023-03-12T16:39:21.906Z,100.00
2023-03-12T16:41:48.476Z,100.00
2023-03-12T16:44:19.669Z,100.00
2023-03-12T16:46:46.451Z,100.00
2023-03-12T16:49:19.605Z,100.00
2023-03-12T16:51:46.390Z,100.00
2023-03-12T16:54:12.902Z,100.00
2023-03-12T16:56:45.177Z,100.00
2023-03-12T16:59:27.338Z,100.00
2023-03-12T17:01:54.328Z,100.00
2023-03-12T17:04:21.011Z,100.00
2023-03-12T17:06:47.507Z,100.00
2023-03-12T17:09:13.912Z,100.00
2023-03-12T17:11:40.923Z,100.00
2023-03-12T17:14:21.923Z,100.00
2023-03-12T17:16:48.650Z,100.00
2023-03-12T17:19:15.260Z,100.00
2023-03-12T17:21:43.266Z,100.00
2023-03-12T17:24:14.018Z,100.00
2023-03-12T17:26:41.480Z,100.00
2023-03-12T17:29:08.385Z,100.00
2023-03-12T17:31:37.615Z,100.00
2023-03-12T17:34:04.628Z,100.00
2023-03-12T17:36:31.162Z,100.00
2023-03-12T17:38:57.655Z,100.00
2023-03-12T17:41:26.964Z,100.00
2023-03-12T17:43:55.232Z,100.00
2023-03-12T17:46:22.177Z,100.00
2023-03-12T17:48:48.690Z,100.00
2023-03-12T17:51:15.102Z,100.00
2023-03-12T17:53:41.989Z,100.00
2023-03-12T17:56:09.133Z,100.00
2023-03-12T17:58:35.551Z,100.00
2023-03-12T18:01:02.010Z,100.00
2023-03-12T18:03:28.711Z,100.00
2023-03-12T18:05:55.240Z,100.00
2023-03-12T18:08:21.940Z,100.00
2023-03-12T18:10:48.909Z,100.00
2023-03-12T18:13:15.907Z,100.00
2023-03-12T18:15:42.654Z,100.00
2023-03-12T18:18:09.182Z,100.00
2023-03-12T18:20:39.560Z,100.00
2023-03-12T18:23:06.906Z,100.00
2023-03-12T18:25:34.751Z,100.00
2023-03-12T18:28:01.253Z,100.00
2023-03-12T18:30:28.346Z,100.00
2023-03-12T18:32:55.058Z,100.00
2023-03-12T18:35:22.691Z,100.00
2023-03-12T18:37:52.561Z,100.00
2023-03-12T18:40:19.102Z,100.00
2023-03-12T18:42:45.931Z,100.00
2023-03-12T18:45:12.770Z,100.00
2023-03-12T18:47:39.657Z,100.00
2023-03-12T18:50:08.042Z,100.00
2023-03-12T18:52:35.474Z,100.00
2023-03-12T18:55:02.187Z,100.00
2023-03-12T18:57:28.756Z,100.00
2023-03-12T18:59:55.946Z,100.00
2023-03-12T19:02:23.717Z,100.00
2023-03-12T19:04:56.171Z,100.00
2023-03-12T19:07:22.849Z,100.00
2023-03-12T19:09:49.288Z,100.00
2023-03-12T19:12:15.708Z,100.00
2023-03-12T19:14:42.137Z,100.00
2023-03-12T19:17:08.583Z,100.00
2023-03-12T19:19:35.009Z,100.00
2023-03-12T19:22:01.393Z,100.00
2023-03-12T19:24:27.869Z,100.00
2023-03-12T19:26:54.283Z,100.00
2023-03-12T19:29:20.694Z,100.00
2023-03-12T19:31:47.129Z,100.00
2023-03-12T19:34:13.540Z,100.00
2023-03-12T19:36:40.040Z,100.00
2023-03-12T19:39:15.316Z,100.00
2023-03-12T19:41:47.279Z,100.00
2023-03-12T19:44:14.004Z,100.00
2023-03-12T19:46:42.920Z,100.00
2023-03-12T19:49:09.623Z,100.00
2023-03-12T19:51:36.307Z,100.00
2023-03-12T19:54:02.751Z,100.00
2023-03-12T19:56:29.316Z,100.00
2023-03-12T19:58:55.695Z,100.00
2023-03-12T20:01:22.969Z,100.00
2023-03-12T20:03:49.419Z,100.00
2023-03-12T20:06:15.800Z,100.00
2023-03-12T20:08:42.261Z,100.00
2023-03-12T20:11:10.479Z,100.00
2023-03-12T20:13:39.856Z,100.00
2023-03-12T20:16:07.605Z,100.00
2023-03-12T20:18:34.125Z,100.00
2023-03-12T20:21:00.538Z,100.00
2023-03-12T20:23:26.963Z,100.00
2023-03-12T20:25:53.351Z,100.00
2023-03-12T20:28:19.733Z,100.00
2023-03-12T20:30:46.204Z,100.00
2023-03-12T20:33:12.784Z,100.00
2023-03-12T20:35:39.598Z,100.00
2023-03-12T20:38:06.360Z,100.00
2023-03-12T20:40:32.758Z,100.00
2023-03-12T20:42:59.358Z,100.00
2023-03-12T20:45:25.755Z,100.00
2023-03-12T20:47:53.429Z,100.00
2023-03-12T20:50:20.744Z,100.00
2023-03-12T20:52:47.188Z,100.00
2023-03-12T20:55:13.587Z,100.00
2023-03-12T20:57:39.981Z,100.00
2023-03-12T21:00:07.121Z,100.00
2023-03-12T21:02:34.140Z,100.00
2023-03-12T21:05:00.592Z,100.00
2023-03-12T21:07:27.067Z,100.00
2023-03-12T21:09:53.721Z,100.00
2023-03-12T21:12:20.230Z,100.00
2023-03-12T21:14:46.620Z,100.00
2023-03-12T21:17:13.761Z,100.00
2023-03-12T21:19:41.838Z,100.00
2023-03-12T21:22:09.186Z,100.00
2023-03-12T21:24:35.799Z,100.00
2023-03-12T21:27:02.468Z,100.00
2023-03-12T21:29:28.889Z,100.00
2023-03-12T21:31:55.361Z,100.00
2023-03-12T21:34:22.755Z,100.00
2023-03-12T21:36:49.206Z,100.00
2023-03-12T21:39:16.971Z,100.00
2023-03-12T21:41:43.382Z,100.00
2023-03-12T21:44:09.767Z,100.00
2023-03-12T21:46:36.685Z,100.00
2023-03-12T21:49:03.358Z,100.00
2023-03-12T21:51:29.778Z,100.00
2023-03-12T21:53:57.289Z,100.00
2023-03-12T21:56:27.991Z,100.00
2023-03-12T21:58:58.189Z,100.00
2023-03-12T22:01:25.273Z,100.00
2023-03-12T22:03:51.870Z,100.00
2023-03-12T22:06:18.575Z,100.00
2023-03-12T22:08:48.024Z,100.00
2023-03-12T22:11:15.976Z,100.00
2023-03-12T22:13:42.631Z,100.00
2023-03-12T22:16:11.193Z,100.00
2023-03-12T22:18:43.507Z,100.00
2023-03-12T22:21:16.504Z,100.00
2023-03-12T22:23:42.970Z,100.00
2023-03-12T22:26:09.665Z,100.00
2023-03-12T22:28:36.182Z,100.00
2023-03-12T22:31:05.486Z,100.00
2023-03-12T22:33:32.354Z,100.00
2023-03-12T22:35:58.760Z,100.00
2023-03-12T22:38:25.238Z,100.00
2023-03-12T22:40:53.172Z,100.00
2023-03-12T22:43:21.459Z,100.00
2023-03-12T22:45:47.854Z,100.00
2023-03-12T22:48:14.227Z,100.00
2023-03-12T22:50:40.637Z,100.00
2023-03-12T22:53:07.233Z,100.00
2023-03-12T22:55:33.943Z,100.00
2023-03-12T22:58:00.389Z,100.00
2023-03-12T23:00:26.796Z,100.00
2023-03-12T23:02:53.607Z,100.00
2023-03-12T23:05:20.138Z,100.00
2023-03-12T23:07:47.009Z,100.00
2023-03-12T23:10:13.432Z,100.00
2023-03-12T23:12:40.142Z,100.00
2023-03-12T23:15:06.999Z,100.00
2023-03-12T23:17:33.477Z,100.00
2023-03-12T23:19:59.885Z,100.00
2023-03-12T23:22:26.871Z,100.00
2023-03-12T23:24:53.265Z,100.00
2023-03-12T23:27:19.708Z,100.00
2023-03-12T23:29:46.099Z,100.00
2023-03-12T23:32:12.855Z,100.00
2023-03-12T23:34:39.244Z,100.00
2023-03-12T23:37:06.164Z,100.00
2023-03-12T23:39:35.375Z,100.00
2023-03-12T23:42:06.432Z,100.00
2023-03-12T23:44:33.026Z,100.00
2023-03-12T23:46:59.481Z,100.00
2023-03-12T23:49:25.924Z,100.00
2023-03-12T23:51:52.337Z,100.00
2023-03-12T23:54:18.705Z,100.00
2023-03-12T23:56:45.432Z,100.00
2023-03-12T23:59:11.812Z,100.00
